Zim Qingdao — A8IZ2 — position and weather

sailwx.info

Track history (hours):
 
Tides and Currents Weather Stations Pressure Air Temp Water Temp Dewpoint Dewpoint Depression Visibility Wind Speed Wind Dir Waves Ship Positions

Zim Qingdao

Last reported at 2014-Dec-20 23:31 UTC. Time now 2014-Dec-21 00:26 UTC.
Position N 37°57' E 023°36'.

Length 260.61 m; beam 32.25 m; draft 12.6 m.

Type: Cargo ship. MMSI: 636012904.

Date/timePositionNaut miles runAvg speedWind from/ knotsBaromVisibWave heightAir tempDewpointWater temp
2014-Dec-20 23:31N 37°57' E 023°36'0 0.0
2014-Dec-20 22:31N 37°57' E 023°36'0 0.0
2014-Dec-20 21:31N 37°57' E 023°36'0 0.0
2014-Dec-20 20:31N 37°57' E 023°36'0 0.0
2014-Dec-20 19:31N 37°57' E 023°36'5 5.3
2014-Dec-20 18:33N 37°53' E 023°38'1615.5
2014-Dec-20 17:33N 37°38' E 023°46'2017.3
2014-Dec-20 16:25N 37°20' E 023°54'3217.4
2014-Dec-20 14:33N 36°49' E 024°08'1716.9
2014-Dec-20 13:33N 36°34' E 024°18'1717.1
2014-Dec-20 12:33N 36°25' E 024°36'1717.4
2014-Dec-20 11:33N 36°16' E 024°54'1817.5
2014-Dec-20 10:33N 36°06' E 025°12'1817.5
2014-Dec-20 09:33N 35°57' E 025°30'1717.4
2014-Dec-20 08:33N 35°49' E 025°50'1916.4
2014-Dec-20 07:23N 35°37' E 026°08'12917.4
2014-Dec-20 00:00N 34°42' E 028°30'33016.8 010 / 151017.010.8 17.010.0
2014-Dec-19 04:19N 32°55' E 034°46'6 0.2
2014-Dec-18 01:29N 32°50' E 034°50'1010.7
2014-Dec-18 00:33N 32°41' E 034°47'1111.0
2014-Dec-17 23:33N 32°30' E 034°43'1111.0
2014-Dec-17 22:33N 32°19' E 034°39'1211.7
2014-Dec-17 21:33N 32°08' E 034°35'1511.6
2014-Dec-17 20:16N 31°54' E 034°31'  
2014-Dec-14 18:22N 34°14' E 025°28'56212.0
2014-Dec-12 19:29N 38°41' E 015°13'36313.0
2014-Dec-11 15:31N 43°23' E 010°10'1010.6
2014-Dec-11 14:33N 43°32' E 010°16'3 2.9
2014-Dec-11 13:28N 43°34' E 010°18'0 0.0
2014-Dec-11 12:31N 43°34' E 010°18'0 0.0
2014-Dec-11 11:31N 43°34' E 010°18'0 0.0
2014-Dec-11 10:31N 43°34' E 010°18'0 0.0
2014-Dec-11 09:31N 43°34' E 010°18'0 0.0
2014-Dec-11 08:31N 43°34' E 010°18'0 0.0
2014-Dec-11 07:31N 43°34' E 010°18'0 0.0
2014-Dec-11 06:31N 43°34' E 010°18'0 0.0
2014-Dec-11 05:31N 43°34' E 010°18'0 0.0
2014-Dec-11 04:31N 43°34' E 010°18'0 0.0
2014-Dec-11 03:28N 43°34' E 010°18'0 0.0
2014-Dec-11 02:31N 43°34' E 010°18'0 0.0
2014-Dec-11 01:31N 43°34' E 010°18'0 0.0
2014-Dec-11 00:31N 43°34' E 010°18'2 1.8
2014-Dec-10 23:33N 43°33' E 010°17'  
Track history (hours):
 
Tides and Currents Weather Stations Pressure Air Temp Water Temp Dewpoint Dewpoint Depression Visibility Wind Speed Wind Dir Waves Ship Positions

Zim Qingdao

Last reported at 2014-Dec-20 23:31 UTC. Time now 2014-Dec-21 00:26 UTC.
Position N 37°57' E 023°36'.

Length 260.61 m; beam 32.25 m; draft 12.6 m.

Type: Cargo ship. MMSI: 636012904.

Date/timePositionNaut miles runAvg speedWind from/ knotsBaromVisibWave heightAir tempDewpointWater temp
2014-Dec-20 23:31N 37°57' E 023°36'0 0.0
2014-Dec-20 22:31N 37°57' E 023°36'0 0.0
2014-Dec-20 21:31N 37°57' E 023°36'0 0.0
2014-Dec-20 20:31N 37°57' E 023°36'0 0.0
2014-Dec-20 19:31N 37°57' E 023°36'5 5.3
2014-Dec-20 18:33N 37°53' E 023°38'1615.5
2014-Dec-20 17:33N 37°38' E 023°46'2017.3
2014-Dec-20 16:25N 37°20' E 023°54'3217.4
2014-Dec-20 14:33N 36°49' E 024°08'1716.9
2014-Dec-20 13:33N 36°34' E 024°18'1717.1
2014-Dec-20 12:33N 36°25' E 024°36'1717.4
2014-Dec-20 11:33N 36°16' E 024°54'1817.5
2014-Dec-20 10:33N 36°06' E 025°12'1817.5
2014-Dec-20 09:33N 35°57' E 025°30'1717.4
2014-Dec-20 08:33N 35°49' E 025°50'1916.4
2014-Dec-20 07:23N 35°37' E 026°08'12917.4
2014-Dec-20 00:00N 34°42' E 028°30'33016.8 010 / 151017.010.8 17.010.0
2014-Dec-19 04:19N 32°55' E 034°46'6 0.2
2014-Dec-18 01:29N 32°50' E 034°50'1010.7
2014-Dec-18 00:33N 32°41' E 034°47'1111.0
2014-Dec-17 23:33N 32°30' E 034°43'1111.0
2014-Dec-17 22:33N 32°19' E 034°39'1211.7
2014-Dec-17 21:33N 32°08' E 034°35'1511.6
2014-Dec-17 20:16N 31°54' E 034°31'  
2014-Dec-14 18:22N 34°14' E 025°28'56212.0
2014-Dec-12 19:29N 38°41' E 015°13'36313.0
2014-Dec-11 15:31N 43°23' E 010°10'1010.6
2014-Dec-11 14:33N 43°32' E 010°16'3 2.9
2014-Dec-11 13:28N 43°34' E 010°18'0 0.0
2014-Dec-11 12:31N 43°34' E 010°18'0 0.0
2014-Dec-11 11:31N 43°34' E 010°18'0 0.0
2014-Dec-11 10:31N 43°34' E 010°18'0 0.0
2014-Dec-11 09:31N 43°34' E 010°18'0 0.0
2014-Dec-11 08:31N 43°34' E 010°18'0 0.0
2014-Dec-11 07:31N 43°34' E 010°18'0 0.0
2014-Dec-11 06:31N 43°34' E 010°18'0 0.0
2014-Dec-11 05:31N 43°34' E 010°18'0 0.0
2014-Dec-11 04:31N 43°34' E 010°18'0 0.0
2014-Dec-11 03:28N 43°34' E 010°18'0 0.0
2014-Dec-11 02:31N 43°34' E 010°18'0 0.0
2014-Dec-11 01:31N 43°34' E 010°18'0 0.0
2014-Dec-11 00:31N 43°34' E 010°18'2 1.8
2014-Dec-10 23:33N 43°33' E 010°17'  

Dump ship's entire track history